Farista, Colorado
Current Conditions -  °F | °C
As of 12:30 PM on Thursday 18 Dec 2014 (Local Time) from KVTP Reporting Station
Haze Haze  
Wind Chill: 15°   Ceiling: 100
Heat Index: 23°   Visibility: 2mi
Dew Point: 19°   Wind: 7mph
Humidity: 86%   Direction: 190°S
Pressure: 30.01"   Gusts: NA
Location:  37.6936°N, 104.772°W
Report Text: KVTP 181930Z AUTO 19006KT 2SM BR OVC001 M05/M07 A3001 RMK AO2
Loading
Personal Weather Stations






























Interactive Weather Map New forecast layout! Learn more

10-Day Weather Forecast

Advertisements
Track Severe Weather on mobile